sensor_id;sensor_type;location;lat;lon;timestamp;pressure;altitude;pressure_sealevel;temperature;humidity
11114;BME280;5610;52.154;9.198;2023-03-19T00:00:35;100359.78;;;10.36;100.00
11114;BME280;5610;52.154;9.198;2023-03-19T00:03:22;100364.03;;;10.26;100.00
11114;BME280;5610;52.154;9.198;2023-03-19T00:06:07;100363.81;;;10.14;100.00
11114;BME280;5610;52.154;9.198;2023-03-19T00:08:52;100361.47;;;10.10;100.00
11114;BME280;5610;52.154;9.198;2023-03-19T00:11:37;100361.84;;;10.04;100.00
11114;BME280;5610;52.154;9.198;2023-03-19T00:14:23;100368.31;;;10.00;100.00
11114;BME280;5610;52.154;9.198;2023-03-19T00:17:09;100375.53;;;9.98;100.00
11114;BME280;5610;52.154;9.198;2023-03-19T00:19:56;100377.34;;;9.97;100.00
11114;BME280;5610;52.154;9.198;2023-03-19T00:22:41;100376.50;;;9.97;100.00
11114;BME280;5610;52.154;9.198;2023-03-19T00:25:26;100377.47;;;9.96;100.00
11114;BME280;5610;52.154;9.198;2023-03-19T00:28:11;100380.22;;;9.94;100.00
11114;BME280;5610;52.154;9.198;2023-03-19T00:30:57;100374.91;;;9.94;100.00
11114;BME280;5610;52.154;9.198;2023-03-19T00:33:42;100377.56;;;9.94;100.00
11114;BME280;5610;52.154;9.198;2023-03-19T00:36:29;100373.38;;;9.90;100.00
11114;BME280;5610;52.154;9.198;2023-03-19T00:39:15;100365.59;;;9.87;100.00
11114;BME280;5610;52.154;9.198;2023-03-19T00:42:00;100363.22;;;9.82;100.00
11114;BME280;5610;52.154;9.198;2023-03-19T00:44:45;100363.38;;;9.79;100.00
11114;BME280;5610;52.154;9.198;2023-03-19T00:47:30;100362.63;;;9.77;100.00
11114;BME280;5610;52.154;9.198;2023-03-19T00:50:15;100364.72;;;9.72;100.00
11114;BME280;5610;52.154;9.198;2023-03-19T00:53:02;100372.25;;;9.80;100.00
11114;BME280;5610;52.154;9.198;2023-03-19T00:55:48;100376.69;;;9.79;100.00
11114;BME280;5610;52.154;9.198;2023-03-19T00:58:34;100371.19;;;9.82;100.00
11114;BME280;5610;52.154;9.198;2023-03-19T01:01:21;100371.19;;;9.82;100.00
11114;BME280;5610;52.154;9.198;2023-03-19T01:04:07;100370.63;;;9.77;100.00
11114;BME280;5610;52.154;9.198;2023-03-19T01:06:54;100375.28;;;9.74;100.00
11114;BME280;5610;52.154;9.198;2023-03-19T01:09:44;100376.69;;;9.65;100.00
11114;BME280;5610;52.154;9.198;2023-03-19T01:12:29;100378.69;;;9.61;100.00
11114;BME280;5610;52.154;9.198;2023-03-19T01:15:15;100378.09;;;9.42;100.00
11114;BME280;5610;52.154;9.198;2023-03-19T01:18:01;100370.72;;;9.33;100.00
11114;BME280;5610;52.154;9.198;2023-03-19T01:20:46;100375.75;;;9.38;100.00
11114;BME280;5610;52.154;9.198;2023-03-19T01:23:31;100367.94;;;9.34;100.00
11114;BME280;5610;52.154;9.198;2023-03-19T01:26:18;100377.47;;;9.39;100.00
11114;BME280;5610;52.154;9.198;2023-03-19T01:29:06;100373.00;;;9.39;100.00
11114;BME280;5610;52.154;9.198;2023-03-19T01:31:51;100368.63;;;9.38;100.00
11114;BME280;5610;52.154;9.198;2023-03-19T01:34:54;100364.81;;;9.42;100.00
11114;BME280;5610;52.154;9.198;2023-03-19T01:37:39;100376.03;;;9.47;100.00
11114;BME280;5610;52.154;9.198;2023-03-19T01:40:25;100371.47;;;9.49;100.00
11114;BME280;5610;52.154;9.198;2023-03-19T01:43:15;100376.19;;;9.44;100.00
11114;BME280;5610;52.154;9.198;2023-03-19T01:46:21;100370.81;;;9.31;100.00
11114;BME280;5610;52.154;9.198;2023-03-19T01:49:29;100368.78;;;9.21;100.00
11114;BME280;5610;52.154;9.198;2023-03-19T01:52:44;100369.25;;;9.13;100.00
11114;BME280;5610;52.154;9.198;2023-03-19T01:55:40;100375.88;;;9.06;100.00
11114;BME280;5610;52.154;9.198;2023-03-19T01:58:52;100371.00;;;8.98;100.00
11114;BME280;5610;52.154;9.198;2023-03-19T02:01:55;100374.88;;;8.93;100.00
11114;BME280;5610;52.154;9.198;2023-03-19T02:04:43;100378.59;;;8.90;100.00
11114;BME280;5610;52.154;9.198;2023-03-19T02:07:33;100378.69;;;8.89;100.00
11114;BME280;5610;52.154;9.198;2023-03-19T02:10:19;100378.84;;;8.86;100.00
11114;BME280;5610;52.154;9.198;2023-03-19T02:13:05;100370.28;;;8.80;100.00
11114;BME280;5610;52.154;9.198;2023-03-19T02:15:53;100372.19;;;8.78;100.00
11114;BME280;5610;52.154;9.198;2023-03-19T02:18:38;100375.78;;;8.77;100.00
11114;BME280;5610;52.154;9.198;2023-03-19T02:21:24;100383.66;;;8.79;100.00
11114;BME280;5610;52.154;9.198;2023-03-19T02:24:11;100383.75;;;8.77;100.00
11114;BME280;5610;52.154;9.198;2023-03-19T02:27:11;100375.13;;;8.74;100.00
11114;BME280;5610;52.154;9.198;2023-03-19T02:30:16;100388.41;;;8.74;100.00
11114;BME280;5610;52.154;9.198;2023-03-19T02:33:02;100370.66;;;8.74;100.00
11114;BME280;5610;52.154;9.198;2023-03-19T02:35:49;100378.44;;;8.77;100.00
11114;BME280;5610;52.154;9.198;2023-03-19T02:38:38;100376.63;;;8.78;100.00
11114;BME280;5610;52.154;9.198;2023-03-19T02:41:25;100371.41;;;8.76;100.00
11114;BME280;5610;52.154;9.198;2023-03-19T02:44:11;100375.47;;;8.68;100.00
11114;BME280;5610;52.154;9.198;2023-03-19T02:46:57;100383.16;;;8.72;100.00
11114;BME280;5610;52.154;9.198;2023-03-19T02:49:42;100378.19;;;8.66;100.00
11114;BME280;5610;52.154;9.198;2023-03-19T02:52:27;100377.34;;;8.66;100.00
11114;BME280;5610;52.154;9.198;2023-03-19T02:55:13;100376.53;;;8.49;100.00
11114;BME280;5610;52.154;9.198;2023-03-19T02:58:01;100374.06;;;8.46;100.00
11114;BME280;5610;52.154;9.198;2023-03-19T03:00:48;100375.75;;;8.47;100.00
11114;BME280;5610;52.154;9.198;2023-03-19T03:03:34;100381.31;;;8.43;100.00
11114;BME280;5610;52.154;9.198;2023-03-19T03:06:20;100380.56;;;8.41;100.00
11114;BME280;5610;52.154;9.198;2023-03-19T03:09:05;100374.56;;;8.37;100.00
11114;BME280;5610;52.154;9.198;2023-03-19T03:11:50;100377.59;;;8.30;100.00
11114;BME280;5610;52.154;9.198;2023-03-19T03:14:35;100381.97;;;8.31;100.00
11114;BME280;5610;52.154;9.198;2023-03-19T03:17:22;100387.38;;;8.29;100.00
11114;BME280;5610;52.154;9.198;2023-03-19T03:20:08;100390.03;;;8.29;100.00
11114;BME280;5610;52.154;9.198;2023-03-19T03:22:54;100390.56;;;8.20;100.00
11114;BME280;5610;52.154;9.198;2023-03-19T03:25:39;100385.75;;;8.11;100.00
11114;BME280;5610;52.154;9.198;2023-03-19T03:28:24;100396.53;;;8.08;100.00
11114;BME280;5610;52.154;9.198;2023-03-19T03:31:09;100391.22;;;8.08;100.00
11114;BME280;5610;52.154;9.198;2023-03-19T03:33:58;100388.81;;;8.03;100.00
11114;BME280;5610;52.154;9.198;2023-03-19T03:36:43;100393.44;;;7.99;100.00
11114;BME280;5610;52.154;9.198;2023-03-19T03:39:29;100398.06;;;7.96;100.00
11114;BME280;5610;52.154;9.198;2023-03-19T03:42:15;100386.53;;;7.97;100.00
11114;BME280;5610;52.154;9.198;2023-03-19T03:45:00;100381.13;;;7.98;100.00
11114;BME280;5610;52.154;9.198;2023-03-19T03:47:46;100389.00;;;8.00;100.00
11114;BME280;5610;52.154;9.198;2023-03-19T03:50:32;100395.88;;;8.04;100.00
11114;BME280;5610;52.154;9.198;2023-03-19T03:53:23;100400.75;;;8.12;100.00
11114;BME280;5610;52.154;9.198;2023-03-19T03:56:08;100395.44;;;8.27;100.00
11114;BME280;5610;52.154;9.198;2023-03-19T03:58:54;100395.19;;;8.48;100.00
11114;BME280;5610;52.154;9.198;2023-03-19T04:01:39;100398.09;;;8.59;100.00
11114;BME280;5610;52.154;9.198;2023-03-19T04:04:24;100411.63;;;8.70;100.00
11114;BME280;5610;52.154;9.198;2023-03-19T04:07:11;100412.88;;;8.79;100.00
11114;BME280;5610;52.154;9.198;2023-03-19T04:10:01;100407.22;;;8.85;100.00
11114;BME280;5610;52.154;9.198;2023-03-19T04:12:47;100409.31;;;8.94;100.00
11114;BME280;5610;52.154;9.198;2023-03-19T04:15:32;100399.88;;;9.04;100.00
11114;BME280;5610;52.154;9.198;2023-03-19T04:18:18;100394.13;;;9.12;100.00
11114;BME280;5610;52.154;9.198;2023-03-19T04:21:05;100392.81;;;9.19;100.00
11114;BME280;5610;52.154;9.198;2023-03-19T04:23:51;100392.06;;;9.31;100.00
11114;BME280;5610;52.154;9.198;2023-03-19T04:26:37;100388.25;;;9.35;100.00
11114;BME280;5610;52.154;9.198;2023-03-19T04:29:22;100388.56;;;9.31;100.00
11114;BME280;5610;52.154;9.198;2023-03-19T04:32:07;100390.16;;;9.33;100.00
11114;BME280;5610;52.154;9.198;2023-03-19T04:34:53;100385.13;;;9.43;100.00
11114;BME280;5610;52.154;9.198;2023-03-19T04:37:39;100382.69;;;9.54;100.00
11114;BME280;5610;52.154;9.198;2023-03-19T04:40:27;100382.22;;;9.62;100.00
11114;BME280;5610;52.154;9.198;2023-03-19T04:43:13;100383.91;;;9.63;100.00
11114;BME280;5610;52.154;9.198;2023-03-19T04:45:58;100386.78;;;9.60;100.00
11114;BME280;5610;52.154;9.198;2023-03-19T04:48:43;100381.72;;;9.55;100.00
11114;BME280;5610;52.154;9.198;2023-03-19T04:51:29;100381.09;;;9.52;100.00
11114;BME280;5610;52.154;9.198;2023-03-19T04:54:14;100379.44;;;9.49;100.00
11114;BME280;5610;52.154;9.198;2023-03-19T04:57:01;100379.44;;;9.49;100.00
11114;BME280;5610;52.154;9.198;2023-03-19T04:59:50;100374.13;;;9.49;100.00
11114;BME280;5610;52.154;9.198;2023-03-19T05:02:37;100385.81;;;9.47;100.00
11114;BME280;5610;52.154;9.198;2023-03-19T05:05:22;100386.78;;;9.46;100.00
11114;BME280;5610;52.154;9.198;2023-03-19T05:08:08;100391.31;;;9.44;100.00
11114;BME280;5610;52.154;9.198;2023-03-19T05:10:53;100392.38;;;9.41;100.00
11114;BME280;5610;52.154;9.198;2023-03-19T05:13:40;100395.88;;;9.42;100.00
11114;BME280;5610;52.154;9.198;2023-03-19T05:16:26;100392.56;;;9.38;100.00
11114;BME280;5610;52.154;9.198;2023-03-19T05:19:11;100400.72;;;9.35;100.00
11114;BME280;5610;52.154;9.198;2023-03-19T05:21:57;100397.19;;;9.34;100.00
11114;BME280;5610;52.154;9.198;2023-03-19T05:24:44;100393.59;;;9.35;100.00
11114;BME280;5610;52.154;9.198;2023-03-19T05:27:29;100396.44;;;9.32;100.00
11114;BME280;5610;52.154;9.198;2023-03-19T05:30:22;100399.09;;;9.32;100.00
11114;BME280;5610;52.154;9.198;2023-03-19T05:33:19;100397.19;;;9.34;100.00
11114;BME280;5610;52.154;9.198;2023-03-19T05:36:06;100405.06;;;9.36;100.00
11114;BME280;5610;52.154;9.198;2023-03-19T05:39:14;100404.22;;;9.35;100.00
11114;BME280;5610;52.154;9.198;2023-03-19T05:42:01;100397.56;;;9.28;100.00
11114;BME280;5610;52.154;9.198;2023-03-19T05:44:47;100410.09;;;9.26;100.00
11114;BME280;5610;52.154;9.198;2023-03-19T05:47:46;100412.28;;;9.34;100.00
11114;BME280;5610;52.154;9.198;2023-03-19T05:50:33;100411.72;;;9.43;100.00
11114;BME280;5610;52.154;9.198;2023-03-19T05:53:34;100407.59;;;9.53;100.00
11114;BME280;5610;52.154;9.198;2023-03-19T05:56:39;100422.13;;;9.62;100.00
11114;BME280;5610;52.154;9.198;2023-03-19T05:59:47;100409.50;;;9.66;100.00
11114;BME280;5610;52.154;9.198;2023-03-19T06:02:52;100417.94;;;9.72;100.00
11114;BME280;5610;52.154;9.198;2023-03-19T06:05:47;100425.63;;;9.77;100.00
11114;BME280;5610;52.154;9.198;2023-03-19T06:08:48;100421.84;;;9.81;100.00
11114;BME280;5610;52.154;9.198;2023-03-19T06:11:38;100426.88;;;9.85;100.00
11114;BME280;5610;52.154;9.198;2023-03-19T06:15:00;100418.03;;;9.85;100.00
11114;BME280;5610;52.154;9.198;2023-03-19T06:18:06;100423.84;;;9.91;100.00
11114;BME280;5610;52.154;9.198;2023-03-19T06:20:52;100428.69;;;9.99;100.00
11114;BME280;5610;52.154;9.198;2023-03-19T06:23:38;100428.19;;;10.07;100.00
11114;BME280;5610;52.154;9.198;2023-03-19T06:26:25;100432.59;;;10.08;100.00
11114;BME280;5610;52.154;9.198;2023-03-19T06:29:14;100425.47;;;10.08;100.00
11114;BME280;5610;52.154;9.198;2023-03-19T06:32:03;100425.63;;;10.05;100.00
11114;BME280;5610;52.154;9.198;2023-03-19T06:34:59;100433.72;;;10.04;100.00
11114;BME280;5610;52.154;9.198;2023-03-19T06:37:44;100437.50;;;10.00;100.00
11114;BME280;5610;52.154;9.198;2023-03-19T06:40:29;100439.44;;;9.98;100.00
11114;BME280;5610;52.154;9.198;2023-03-19T06:43:14;100450.06;;;9.98;100.00
11114;BME280;5610;52.154;9.198;2023-03-19T06:46:00;100457.09;;;9.99;100.00
11114;BME280;5610;52.154;9.198;2023-03-19T06:48:45;100458.06;;;9.98;100.00
11114;BME280;5610;52.154;9.198;2023-03-19T06:51:31;100458.06;;;9.98;100.00
11114;BME280;5610;52.154;9.198;2023-03-19T06:54:17;100463.28;;;9.99;100.00
11114;BME280;5610;52.154;9.198;2023-03-19T06:57:03;100461.00;;;9.93;100.00
11114;BME280;5610;52.154;9.198;2023-03-19T06:59:48;100458.81;;;10.00;100.00
11114;BME280;5610;52.154;9.198;2023-03-19T07:02:34;100464.81;;;10.03;100.00
11114;BME280;5610;52.154;9.198;2023-03-19T07:05:20;100465.78;;;10.02;100.00
11114;BME280;5610;52.154;9.198;2023-03-19T07:08:06;100468.97;;;10.07;100.00
11114;BME280;5610;52.154;9.198;2023-03-19T07:10:54;100472.06;;;10.30;100.00
11114;BME280;5610;52.154;9.198;2023-03-19T07:13:40;100480.31;;;10.39;100.00
11114;BME280;5610;52.154;9.198;2023-03-19T07:16:25;100476.41;;;10.45;100.00
11114;BME280;5610;52.154;9.198;2023-03-19T07:19:10;100484.84;;;10.66;100.00
11114;BME280;5610;52.154;9.198;2023-03-19T07:21:56;100474.25;;;10.79;100.00
11114;BME280;5610;52.154;9.198;2023-03-19T07:24:43;100484.03;;;11.05;100.00
11114;BME280;5610;52.154;9.198;2023-03-19T07:27:28;100488.56;;;11.17;100.00
11114;BME280;5610;52.154;9.198;2023-03-19T07:30:14;100481.13;;;11.22;100.00
11114;BME280;5610;52.154;9.198;2023-03-19T07:32:59;100482.84;;;11.23;100.00
11114;BME280;5610;52.154;9.198;2023-03-19T07:35:44;100487.88;;;11.28;100.00
11114;BME280;5610;52.154;9.198;2023-03-19T07:38:29;100490.22;;;11.33;100.00
11114;BME280;5610;52.154;9.198;2023-03-19T07:41:16;100486.06;;;11.41;100.00
11114;BME280;5610;52.154;9.198;2023-03-19T07:44:02;100496.22;;;11.36;100.00
11114;BME280;5610;52.154;9.198;2023-03-19T07:46:47;100500.19;;;11.43;100.00
11114;BME280;5610;52.154;9.198;2023-03-19T07:49:32;100499.69;;;11.64;100.00
11114;BME280;5610;52.154;9.198;2023-03-19T07:52:17;100495.47;;;11.87;100.00
11114;BME280;5610;52.154;9.198;2023-03-19T07:55:03;100492.03;;;12.10;100.00
11114;BME280;5610;52.154;9.198;2023-03-19T07:57:49;100492.13;;;12.34;100.00
11114;BME280;5610;52.154;9.198;2023-03-19T08:00:35;100482.22;;;12.60;100.00
11114;BME280;5610;52.154;9.198;2023-03-19T08:03:20;100480.25;;;12.75;100.00
11114;BME280;5610;52.154;9.198;2023-03-19T08:06:06;100485.44;;;13.13;100.00
11114;BME280;5610;52.154;9.198;2023-03-19T08:08:51;100481.06;;;13.36;100.00
11114;BME280;5610;52.154;9.198;2023-03-19T08:11:36;100478.44;;;14.05;100.00
11114;BME280;5610;52.154;9.198;2023-03-19T08:14:23;100474.31;;;14.56;100.00
11114;BME280;5610;52.154;9.198;2023-03-19T08:17:08;100477.50;;;14.94;100.00
11114;BME280;5610;52.154;9.198;2023-03-19T08:19:54;100488.91;;;15.18;100.00
11114;BME280;5610;52.154;9.198;2023-03-19T08:22:39;100483.88;;;15.25;100.00
11114;BME280;5610;52.154;9.198;2023-03-19T08:25:24;100492.00;;;15.34;100.00
11114;BME280;5610;52.154;9.198;2023-03-19T08:28:10;100488.28;;;15.47;100.00
11114;BME280;5610;52.154;9.198;2023-03-19T08:30:57;100494.94;;;15.63;100.00
11114;BME280;5610;52.154;9.198;2023-03-19T08:33:42;100492.91;;;15.77;100.00
11114;BME280;5610;52.154;9.198;2023-03-19T08:36:27;100491.16;;;15.87;100.00
11114;BME280;5610;52.154;9.198;2023-03-19T08:39:13;100495.66;;;16.07;100.00
11114;BME280;5610;52.154;9.198;2023-03-19T08:41:58;100494.47;;;16.21;100.00
11114;BME280;5610;52.154;9.198;2023-03-19T08:44:43;100495.34;;;16.31;100.00
11114;BME280;5610;52.154;9.198;2023-03-19T08:47:30;100497.38;;;16.48;100.00
11114;BME280;5610;52.154;9.198;2023-03-19T08:50:16;100495.78;;;16.67;100.00
11114;BME280;5610;52.154;9.198;2023-03-19T08:53:01;100498.84;;;16.93;100.00
11114;BME280;5610;52.154;9.198;2023-03-19T08:55:50;100500.59;;;17.13;100.00
11114;BME280;5610;52.154;9.198;2023-03-19T08:58:36;100493.50;;;17.32;100.00
11114;BME280;5610;52.154;9.198;2023-03-19T09:01:21;100492.91;;;17.47;100.00
11114;BME280;5610;52.154;9.198;2023-03-19T09:04:08;100501.88;;;17.48;100.00
11114;BME280;5610;52.154;9.198;2023-03-19T09:06:54;100496.06;;;17.43;100.00
11114;BME280;5610;52.154;9.198;2023-03-19T09:09:39;100494.19;;;17.53;100.00
11114;BME280;5610;52.154;9.198;2023-03-19T09:12:24;100491.38;;;17.64;100.00
11114;BME280;5610;52.154;9.198;2023-03-19T09:15:10;100495.03;;;17.92;100.00
11114;BME280;5610;52.154;9.198;2023-03-19T09:17:55;100493.16;;;18.02;100.00
11114;BME280;5610;52.154;9.198;2023-03-19T09:20:41;100484.97;;;17.46;100.00
11114;BME280;5610;52.154;9.198;2023-03-19T09:23:27;100495.16;;;17.62;100.00
11114;BME280;5610;52.154;9.198;2023-03-19T09:26:12;100500.44;;;17.63;100.00
11114;BME280;5610;52.154;9.198;2023-03-19T09:28:58;100501.75;;;18.25;100.00
11114;BME280;5610;52.154;9.198;2023-03-19T09:31:43;100495.22;;;18.28;100.00
11114;BME280;5610;52.154;9.198;2023-03-19T09:34:29;100501.19;;;18.69;100.00
11114;BME280;5610;52.154;9.198;2023-03-19T09:37:15;100505.56;;;18.32;94.47
11114;BME280;5610;52.154;9.198;2023-03-19T09:40:01;100503.81;;;18.78;89.08
11114;BME280;5610;52.154;9.198;2023-03-19T09:42:56;100504.88;;;19.48;93.94
11114;BME280;5610;52.154;9.198;2023-03-19T09:45:45;100508.47;;;19.67;100.00
11114;BME280;5610;52.154;9.198;2023-03-19T09:48:38;100505.88;;;19.83;90.03
11114;BME280;5610;52.154;9.198;2023-03-19T09:51:28;100513.03;;;19.92;86.95
11114;BME280;5610;52.154;9.198;2023-03-19T09:54:24;100514.53;;;19.51;86.75
11114;BME280;5610;52.154;9.198;2023-03-19T09:57:10;100515.00;;;19.29;89.22
11114;BME280;5610;52.154;9.198;2023-03-19T09:59:56;100510.94;;;19.60;88.05
11114;BME280;5610;52.154;9.198;2023-03-19T10:02:42;100519.34;;;19.39;80.63
11114;BME280;5610;52.154;9.198;2023-03-19T10:05:41;100516.56;;;19.31;78.55
11114;BME280;5610;52.154;9.198;2023-03-19T10:08:39;100511.19;;;19.04;74.05
11114;BME280;5610;52.154;9.198;2023-03-19T10:11:37;100515.63;;;19.76;74.16
11114;BME280;5610;52.154;9.198;2023-03-19T10:14:40;100513.25;;;19.99;70.04
11114;BME280;5610;52.154;9.198;2023-03-19T10:17:33;100516.94;;;20.16;71.39
11114;BME280;5610;52.154;9.198;2023-03-19T10:20:33;100515.75;;;20.18;68.92
11114;BME280;5610;52.154;9.198;2023-03-19T10:23:36;100518.06;;;19.87;73.07
11114;BME280;5610;52.154;9.198;2023-03-19T10:26:28;100525.31;;;19.61;72.15
11114;BME280;5610;52.154;9.198;2023-03-19T10:29:17;100532.53;;;19.96;77.32
11114;BME280;5610;52.154;9.198;2023-03-19T10:32:12;100523.00;;;19.92;69.95
11114;BME280;5610;52.154;9.198;2023-03-19T10:35:05;100517.69;;;20.52;72.45
11114;BME280;5610;52.154;9.198;2023-03-19T10:37:53;100524.00;;;20.43;66.89
11114;BME280;5610;52.154;9.198;2023-03-19T10:40:44;100517.31;;;21.72;64.36
11114;BME280;5610;52.154;9.198;2023-03-19T10:43:32;100518.66;;;22.72;59.73
11114;BME280;5610;52.154;9.198;2023-03-19T10:46:20;100511.38;;;24.19;55.43
11114;BME280;5610;52.154;9.198;2023-03-19T10:49:10;100522.38;;;23.88;51.63
11114;BME280;5610;52.154;9.198;2023-03-19T10:51:56;100524.97;;;24.04;52.31
11114;BME280;5610;52.154;9.198;2023-03-19T10:54:43;100513.03;;;25.23;52.03
11114;BME280;5610;52.154;9.198;2023-03-19T10:57:29;100517.75;;;25.00;51.08
11114;BME280;5610;52.154;9.198;2023-03-19T11:00:16;100519.75;;;26.75;48.27
11114;BME280;5610;52.154;9.198;2023-03-19T11:03:03;100517.22;;;28.74;45.73
11114;BME280;5610;52.154;9.198;2023-03-19T11:06:16;100512.78;;;29.63;41.75
11114;BME280;5610;52.154;9.198;2023-03-19T11:09:12;100528.69;;;28.05;42.35
11114;BME280;5610;52.154;9.198;2023-03-19T11:12:05;100520.59;;;27.24;42.97
11114;BME280;5610;52.154;9.198;2023-03-19T11:14:52;100511.84;;;28.28;43.24
11114;BME280;5610;52.154;9.198;2023-03-19T11:17:45;100522.16;;;28.32;43.04
11114;BME280;5610;52.154;9.198;2023-03-19T11:20:34;100513.31;;;28.10;43.36
11114;BME280;5610;52.154;9.198;2023-03-19T11:23:20;100510.59;;;28.04;44.60
11114;BME280;5610;52.154;9.198;2023-03-19T11:26:05;100516.81;;;26.42;44.58
11114;BME280;5610;52.154;9.198;2023-03-19T11:28:52;100525.84;;;24.19;47.32
11114;BME280;5610;52.154;9.198;2023-03-19T11:31:40;100525.06;;;22.32;50.39
11114;BME280;5610;52.154;9.198;2023-03-19T11:34:33;100528.31;;;21.38;54.21
11114;BME280;5610;52.154;9.198;2023-03-19T11:37:29;100525.25;;;21.41;55.84
11114;BME280;5610;52.154;9.198;2023-03-19T11:40:30;100529.31;;;21.37;58.13
11114;BME280;5610;52.154;9.198;2023-03-19T11:43:39;100525.78;;;20.52;56.42
11114;BME280;5610;52.154;9.198;2023-03-19T11:46:36;100525.00;;;20.60;59.27
11114;BME280;5610;52.154;9.198;2023-03-19T11:49:32;100524.19;;;20.75;61.12
11114;BME280;5610;52.154;9.198;2023-03-19T11:52:27;100529.47;;;20.85;59.60
11114;BME280;5610;52.154;9.198;2023-03-19T11:55:18;100529.03;;;20.98;60.78
11114;BME280;5610;52.154;9.198;2023-03-19T11:58:25;100519.34;;;20.45;61.07
11114;BME280;5610;52.154;9.198;2023-03-19T12:01:24;100520.97;;;20.12;62.50
11114;BME280;5610;52.154;9.198;2023-03-19T12:04:42;100523.97;;;19.47;63.85
11114;BME280;5610;52.154;9.198;2023-03-19T12:07:37;100527.50;;;19.30;67.05
11114;BME280;5610;52.154;9.198;2023-03-19T12:10:28;100525.81;;;18.83;67.70
11114;BME280;5610;52.154;9.198;2023-03-19T12:13:40;100521.56;;;18.44;66.77
11114;BME280;5610;52.154;9.198;2023-03-19T12:16:36;100531.28;;;18.27;70.07
11114;BME280;5610;52.154;9.198;2023-03-19T12:19:33;100531.50;;;18.43;74.79
11114;BME280;5610;52.154;9.198;2023-03-19T12:22:33;100534.13;;;18.25;68.13
11114;BME280;5610;52.154;9.198;2023-03-19T12:25:35;100528.56;;;18.64;69.97
11114;BME280;5610;52.154;9.198;2023-03-19T12:28:25;100530.78;;;19.06;72.97
11114;BME280;5610;52.154;9.198;2023-03-19T12:31:35;100540.28;;;19.10;67.75
11114;BME280;5610;52.154;9.198;2023-03-19T12:34:30;100531.03;;;19.12;69.46
11114;BME280;5610;52.154;9.198;2023-03-19T12:37:20;100529.09;;;19.23;70.89
11114;BME280;5610;52.154;9.198;2023-03-19T12:40:16;100529.09;;;19.23;71.37
11114;BME280;5610;52.154;9.198;2023-03-19T12:43:16;100528.66;;;19.27;73.84
11114;BME280;5610;52.154;9.198;2023-03-19T12:46:06;100528.97;;;19.24;75.59
11114;BME280;5610;52.154;9.198;2023-03-19T12:48:57;100531.97;;;19.21;76.60
11114;BME280;5610;52.154;9.198;2023-03-19T12:51:47;100527.03;;;19.34;76.03
11114;BME280;5610;52.154;9.198;2023-03-19T12:54:37;100524.81;;;19.65;77.07
11114;BME280;5610;52.154;9.198;2023-03-19T12:57:31;100514.66;;;20.63;70.78
11114;BME280;5610;52.154;9.198;2023-03-19T13:00:26;100517.63;;;22.18;69.29
11114;BME280;5610;52.154;9.198;2023-03-19T13:03:16;100520.28;;;22.98;62.83
11114;BME280;5610;52.154;9.198;2023-03-19T13:06:05;100519.09;;;23.46;62.81
11114;BME280;5610;52.154;9.198;2023-03-19T13:08:57;100525.03;;;22.96;58.63
11114;BME280;5610;52.154;9.198;2023-03-19T13:11:45;100520.44;;;22.57;61.76
11114;BME280;5610;52.154;9.198;2023-03-19T13:14:37;100526.81;;;22.01;65.10
11114;BME280;5610;52.154;9.198;2023-03-19T13:17:36;100522.53;;;21.49;66.93
11114;BME280;5610;52.154;9.198;2023-03-19T13:20:31;100519.88;;;20.56;67.82
11114;BME280;5610;52.154;9.198;2023-03-19T13:23:26;100526.38;;;20.38;70.38
11114;BME280;5610;52.154;9.198;2023-03-19T13:26:14;100523.44;;;20.05;72.20
11114;BME280;5610;52.154;9.198;2023-03-19T13:29:06;100518.44;;;19.92;77.28
11114;BME280;5610;52.154;9.198;2023-03-19T13:31:59;100519.16;;;19.41;80.36
11114;BME280;5610;52.154;9.198;2023-03-19T13:34:46;100519.88;;;19.25;77.94
11114;BME280;5610;52.154;9.198;2023-03-19T13:37:32;100514.47;;;19.25;82.69
11114;BME280;5610;52.154;9.198;2023-03-19T13:40:37;100511.69;;;19.17;85.54
11114;BME280;5610;52.154;9.198;2023-03-19T13:43:41;100509.66;;;19.19;84.78
11114;BME280;5610;52.154;9.198;2023-03-19T13:46:44;100511.53;;;19.36;81.93
11114;BME280;5610;52.154;9.198;2023-03-19T13:49:33;100512.41;;;20.24;83.59
11114;BME280;5610;52.154;9.198;2023-03-19T13:53:09;100507.66;;;21.37;76.56
11114;BME280;5610;52.154;9.198;2023-03-19T13:55:57;100501.50;;;27.50;55.16
11114;BME280;5610;52.154;9.198;2023-03-19T13:58:46;100494.59;;;33.16;42.91
11114;BME280;5610;52.154;9.198;2023-03-19T14:01:37;100492.13;;;33.93;38.31
11114;BME280;5610;52.154;9.198;2023-03-19T14:04:24;100488.84;;;31.11;40.93
11114;BME280;5610;52.154;9.198;2023-03-19T14:07:15;100495.41;;;28.41;44.46
11114;BME280;5610;52.154;9.198;2023-03-19T14:10:06;100498.56;;;26.21;47.93
11114;BME280;5610;52.154;9.198;2023-03-19T14:13:01;100500.13;;;24.66;50.89
11114;BME280;5610;52.154;9.198;2023-03-19T14:15:49;100488.03;;;23.18;54.00
11114;BME280;5610;52.154;9.198;2023-03-19T14:18:39;100488.56;;;22.43;56.42
11114;BME280;5610;52.154;9.198;2023-03-19T14:21:33;100495.25;;;22.00;59.93
11114;BME280;5610;52.154;9.198;2023-03-19T14:24:27;100491.00;;;21.97;61.88
11114;BME280;5610;52.154;9.198;2023-03-19T14:27:16;100493.78;;;21.64;61.71
11114;BME280;5610;52.154;9.198;2023-03-19T14:30:08;100486.47;;;21.41;63.15
11114;BME280;5610;52.154;9.198;2023-03-19T14:32:55;100491.31;;;21.21;64.44
11114;BME280;5610;52.154;9.198;2023-03-19T14:35:45;100489.59;;;21.11;66.12
11114;BME280;5610;52.154;9.198;2023-03-19T14:38:36;100495.84;;;20.96;67.20
11114;BME280;5610;52.154;9.198;2023-03-19T14:41:25;100491.28;;;21.04;68.34
11114;BME280;5610;52.154;9.198;2023-03-19T14:47:49;100498.72;;;20.94;65.72
11114;BME280;5610;52.154;9.198;2023-03-19T14:51:00;100494.09;;;21.53;66.01
11114;BME280;5610;52.154;9.198;2023-03-19T14:53:49;100489.03;;;23.48;60.05
11114;BME280;5610;52.154;9.198;2023-03-19T14:56:37;100490.50;;;22.65;60.88
11114;BME280;5610;52.154;9.198;2023-03-19T14:59:22;100497.81;;;22.09;61.51